createdAt,value
2023-06-05T00:00:30.793Z,25.97
2023-06-05T00:02:59.432Z,25.87
2023-06-05T00:05:28.646Z,25.77
2023-06-05T00:07:57.100Z,25.64
2023-06-05T00:10:26.429Z,25.56
2023-06-05T00:12:54.768Z,25.48
2023-06-05T00:15:23.070Z,25.42
2023-06-05T00:17:51.511Z,25.40
2023-06-05T00:20:20.338Z,25.44
2023-06-05T00:22:49.144Z,25.40
2023-06-05T00:25:17.514Z,25.38
2023-06-05T00:27:45.771Z,25.28
2023-06-05T00:30:15.481Z,25.22
2023-06-05T00:32:44.397Z,25.15
2023-06-05T00:35:12.755Z,25.22
2023-06-05T00:37:41.596Z,25.22
2023-06-05T00:40:10.888Z,25.13
2023-06-05T00:42:39.197Z,25.02
2023-06-05T00:45:08.029Z,24.96
2023-06-05T00:47:37.369Z,24.90
2023-06-05T00:50:06.385Z,24.83
2023-06-05T00:52:35.608Z,24.76
2023-06-05T00:55:04.787Z,24.61
2023-06-05T00:57:36.479Z,24.58
2023-06-05T01:00:08.740Z,24.50
2023-06-05T01:02:39.334Z,24.53
2023-06-05T01:05:07.974Z,24.56
2023-06-05T01:07:39.924Z,24.59
2023-06-05T01:10:12.326Z,24.59
2023-06-05T01:13:01.251Z,24.46
2023-06-05T01:15:31.988Z,24.27
2023-06-05T01:18:02.408Z,24.27
2023-06-05T01:20:40.433Z,24.16
2023-06-05T01:23:10.213Z,23.99
2023-06-05T01:25:39.074Z,23.90
2023-06-05T01:28:28.345Z,23.89
2023-06-05T01:31:05.504Z,23.87
2023-06-05T01:33:58.619Z,23.93
2023-06-05T01:36:27.338Z,23.84
2023-06-05T01:38:57.212Z,23.77
2023-06-05T01:41:27.220Z,23.72
2023-06-05T01:43:57.554Z,23.64
2023-06-05T01:46:26.996Z,23.48
2023-06-05T01:48:56.212Z,23.40
2023-06-05T01:51:24.561Z,23.29
2023-06-05T01:53:54.614Z,23.27
2023-06-05T01:56:25.773Z,23.26
2023-06-05T01:58:55.112Z,23.28
2023-06-05T02:01:25.082Z,23.19
2023-06-05T02:03:55.282Z,23.10
2023-06-05T02:06:23.666Z,23.02
2023-06-05T02:08:51.980Z,23.07
2023-06-05T02:11:20.472Z,23.05
2023-06-05T02:13:51.999Z,22.97
2023-06-05T02:16:20.458Z,22.90
2023-06-05T02:18:50.605Z,22.91
2023-06-05T02:21:18.955Z,22.94
2023-06-05T02:23:47.419Z,22.97
2023-06-05T02:26:18.859Z,22.90
2023-06-05T02:28:47.152Z,22.77
2023-06-05T02:31:17.957Z,22.68
2023-06-05T02:33:46.350Z,22.53
2023-06-05T02:36:17.218Z,22.44
2023-06-05T02:38:46.523Z,22.41
2023-06-05T02:41:14.785Z,22.37
2023-06-05T02:43:43.005Z,22.34
2023-06-05T02:46:11.572Z,22.31
2023-06-05T02:48:40.130Z,22.24
2023-06-05T02:51:08.782Z,22.19
2023-06-05T02:53:37.444Z,22.17
2023-06-05T02:56:06.519Z,22.14
2023-06-05T02:58:35.895Z,22.11
2023-06-05T03:01:04.281Z,22.07
2023-06-05T03:03:34.092Z,22.01
2023-06-05T03:06:06.740Z,21.88
2023-06-05T03:08:38.325Z,21.83
2023-06-05T03:11:07.732Z,21.73
2023-06-05T03:13:36.216Z,21.64
2023-06-05T03:16:04.636Z,21.55
2023-06-05T03:18:32.959Z,21.38
2023-06-05T03:21:01.438Z,21.23
2023-06-05T03:23:30.420Z,21.20
2023-06-05T03:25:59.255Z,21.19
2023-06-05T03:28:28.505Z,21.15
2023-06-05T03:30:56.723Z,21.08
2023-06-05T03:33:25.859Z,21.02
2023-06-05T03:35:54.565Z,21.01
2023-06-05T03:38:22.874Z,20.92
2023-06-05T03:40:51.139Z,20.87
2023-06-05T03:43:19.435Z,20.84
2023-06-05T03:45:48.583Z,20.78
2023-06-05T03:48:16.939Z,20.76
2023-06-05T03:50:46.519Z,20.65
2023-06-05T03:53:15.844Z,20.59
2023-06-05T03:55:46.200Z,20.59
2023-06-05T03:58:16.326Z,20.52
2023-06-05T04:00:45.581Z,20.45
2023-06-05T04:03:14.790Z,20.41
2023-06-05T04:05:43.662Z,20.35
2023-06-05T04:08:12.371Z,20.27
2023-06-05T04:10:42.362Z,20.18
2023-06-05T04:13:10.605Z,20.15
2023-06-05T04:15:38.958Z,20.14
2023-06-05T04:18:07.354Z,20.12
2023-06-05T04:20:35.632Z,20.10
2023-06-05T04:23:03.901Z,20.09
2023-06-05T04:25:32.189Z,20.08
2023-06-05T04:28:01.363Z,20.04
2023-06-05T04:30:31.653Z,19.98
2023-06-05T04:33:00.021Z,19.92
2023-06-05T04:35:28.774Z,19.82
2023-06-05T04:37:58.569Z,19.75
2023-06-05T04:40:27.155Z,19.66
2023-06-05T04:42:56.368Z,19.61
2023-06-05T04:45:24.645Z,19.51
2023-06-05T04:47:53.238Z,19.47
2023-06-05T04:50:27.087Z,19.36
2023-06-05T04:52:55.942Z,19.30
2023-06-05T04:55:24.282Z,19.26
2023-06-05T04:57:53.224Z,19.27
2023-06-05T05:00:21.641Z,19.18
2023-06-05T05:02:49.966Z,19.08
2023-06-05T05:05:18.326Z,19.01
2023-06-05T05:07:46.914Z,18.90
2023-06-05T05:10:16.489Z,18.76
2023-06-05T05:12:44.749Z,18.66
2023-06-05T05:15:13.819Z,18.59
2023-06-05T05:17:42.097Z,18.57
2023-06-05T05:20:10.666Z,18.54
2023-06-05T05:22:39.424Z,18.41
2023-06-05T05:25:08.323Z,18.35
2023-06-05T05:27:36.606Z,18.26
2023-06-05T05:30:05.019Z,18.23
2023-06-05T05:32:33.272Z,18.21
2023-06-05T05:35:01.679Z,18.20
2023-06-05T05:37:29.928Z,18.20
2023-06-05T05:39:58.179Z,18.20
2023-06-05T05:42:26.762Z,18.19
2023-06-05T05:44:54.982Z,18.17
2023-06-05T05:47:23.294Z,18.14
2023-06-05T05:49:51.623Z,18.12
2023-06-05T05:52:22.344Z,18.13
2023-06-05T05:54:50.979Z,18.14
2023-06-05T05:57:19.203Z,18.11
2023-06-05T05:59:47.555Z,18.11
2023-06-05T06:02:16.110Z,18.10
2023-06-05T06:04:46.034Z,18.07
2023-06-05T06:07:14.504Z,18.04
2023-06-05T06:09:42.765Z,18.02
2023-06-05T06:12:12.171Z,17.99
2023-06-05T06:14:40.406Z,17.94
2023-06-05T06:17:12.052Z,17.83
2023-06-05T06:19:40.407Z,17.76
2023-06-05T06:22:13.682Z,17.64
2023-06-05T06:24:43.753Z,17.55
2023-06-05T06:29:56.279Z,17.51
2023-06-05T06:32:27.558Z,17.49
2023-06-05T06:34:56.069Z,17.46
2023-06-05T06:37:24.661Z,17.45
2023-06-05T06:39:53.175Z,17.42
2023-06-05T06:42:21.607Z,17.34
2023-06-05T06:44:49.896Z,17.33
2023-06-05T06:47:19.152Z,17.32
2023-06-05T06:49:47.419Z,17.34
2023-06-05T06:52:15.758Z,17.36
2023-06-05T06:54:43.992Z,17.34
2023-06-05T06:57:12.285Z,17.31
2023-06-05T06:59:44.058Z,17.29
2023-06-05T07:02:21.833Z,17.26
2023-06-05T07:04:50.376Z,17.24
2023-06-05T07:07:20.155Z,17.20
2023-06-05T07:09:52.873Z,17.18
2023-06-05T07:12:24.729Z,17.17
2023-06-05T07:14:53.151Z,17.15
2023-06-05T07:17:21.697Z,17.17
2023-06-05T07:19:49.970Z,17.21
2023-06-05T07:22:18.262Z,17.21
2023-06-05T07:24:46.604Z,17.20
2023-06-05T07:27:14.877Z,17.14
2023-06-05T07:29:43.125Z,17.11
2023-06-05T07:32:11.404Z,17.07
2023-06-05T07:34:40.416Z,17.01
2023-06-05T07:37:11.601Z,16.95
2023-06-05T07:39:39.895Z,16.89
2023-06-05T07:42:08.551Z,16.85
2023-06-05T07:44:37.009Z,16.77
2023-06-05T07:47:05.509Z,16.72
2023-06-05T07:49:34.174Z,16.69
2023-06-05T07:52:02.644Z,16.65
2023-06-05T07:54:31.008Z,16.62
2023-06-05T07:56:59.370Z,16.60
2023-06-05T07:59:29.855Z,16.56
2023-06-05T08:01:58.641Z,16.52
2023-06-05T08:04:27.542Z,16.50
2023-06-05T08:06:55.946Z,16.46
2023-06-05T08:09:24.315Z,16.46
2023-06-05T08:11:52.560Z,16.44
2023-06-05T08:14:20.885Z,16.42
2023-06-05T08:16:49.177Z,16.37
2023-06-05T08:19:17.482Z,16.34
2023-06-05T08:21:45.740Z,16.33
2023-06-05T08:24:13.983Z,16.31
2023-06-05T08:26:42.383Z,16.29
2023-06-05T08:29:10.881Z,16.25
2023-06-05T08:31:39.116Z,16.23
2023-06-05T08:34:07.804Z,16.23
2023-06-05T08:36:37.269Z,16.22
2023-06-05T08:39:06.349Z,16.18
2023-06-05T08:41:35.183Z,16.12
2023-06-05T08:44:04.223Z,16.09
2023-06-05T08:46:36.232Z,16.10
2023-06-05T08:49:11.505Z,16.06
2023-06-05T08:51:42.472Z,16.00
2023-06-05T08:54:15.489Z,15.96
2023-06-05T08:56:45.540Z,15.89
2023-06-05T08:59:16.780Z,15.87
2023-06-05T09:01:46.875Z,15.86
2023-06-05T09:04:15.244Z,15.85
2023-06-05T09:06:53.884Z,15.79
2023-06-05T09:09:22.511Z,15.75
2023-06-05T09:12:06.289Z,15.70
2023-06-05T09:14:35.675Z,15.68
2023-06-05T09:17:05.709Z,15.66
2023-06-05T09:19:45.108Z,15.65
2023-06-05T09:22:15.045Z,15.59
2023-06-05T09:24:44.161Z,15.54
2023-06-05T09:27:13.557Z,15.49
2023-06-05T09:29:45.672Z,15.46
2023-06-05T09:32:16.684Z,15.43
2023-06-05T09:34:46.883Z,15.39
2023-06-05T09:37:15.415Z,15.35
2023-06-05T09:39:48.285Z,15.29
2023-06-05T09:42:16.583Z,15.23
2023-06-05T09:45:01.331Z,15.23
2023-06-05T09:47:35.574Z,15.22
2023-06-05T09:50:25.026Z,15.19
2023-06-05T09:52:54.412Z,15.15
2023-06-05T09:55:25.440Z,15.08
2023-06-05T09:57:54.568Z,15.05
2023-06-05T10:00:22.869Z,15.01
2023-06-05T10:02:54.275Z,15.00
2023-06-05T10:05:24.015Z,15.00
2023-06-05T10:07:55.998Z,15.02
2023-06-05T10:10:25.212Z,15.02
2023-06-05T10:12:58.374Z,14.97
2023-06-05T10:15:29.047Z,14.90
2023-06-05T10:17:58.546Z,14.89
2023-06-05T10:20:27.137Z,14.90
2023-06-05T10:22:56.040Z,14.89
2023-06-05T10:25:25.835Z,14.89
2023-06-05T10:28:09.981Z,14.86
2023-06-05T10:31:05.849Z,14.80
2023-06-05T10:34:02.735Z,14.76
2023-06-05T10:36:42.249Z,14.71
2023-06-05T10:39:12.470Z,14.68
2023-06-05T10:41:41.278Z,14.65
2023-06-05T10:44:09.598Z,14.60
2023-06-05T10:46:39.070Z,14.58
2023-06-05T10:49:07.612Z,14.58
2023-06-05T10:51:48.588Z,14.57
2023-06-05T10:54:36.934Z,14.58
2023-06-05T10:57:07.737Z,14.58
2023-06-05T10:59:38.283Z,14.57
2023-06-05T11:02:09.310Z,14.56
2023-06-05T11:04:50.103Z,14.53
2023-06-05T11:07:29.857Z,14.51
2023-06-05T11:10:04.462Z,14.50
2023-06-05T11:12:42.275Z,14.49
2023-06-05T11:15:11.230Z,14.47
2023-06-05T11:17:47.283Z,14.45
2023-06-05T11:20:47.361Z,14.44
2023-06-05T11:23:15.606Z,14.46
2023-06-05T11:25:44.059Z,14.46
2023-06-05T11:28:13.868Z,14.45
2023-06-05T11:30:49.940Z,14.43
2023-06-05T11:33:21.261Z,14.41
2023-06-05T11:35:51.128Z,14.40
2023-06-05T11:38:23.953Z,14.38
2023-06-05T11:40:53.789Z,14.37
2023-06-05T11:43:23.085Z,14.32
2023-06-05T11:45:53.639Z,14.30
2023-06-05T11:48:22.373Z,14.26
2023-06-05T11:51:10.212Z,14.21
2023-06-05T11:53:45.705Z,14.21
2023-06-05T11:56:19.378Z,14.18
2023-06-05T11:58:48.028Z,14.14
2023-06-05T12:01:24.209Z,14.18
2023-06-05T12:04:07.965Z,14.14
2023-06-05T12:06:48.570Z,14.13
2023-06-05T12:09:17.700Z,14.14
2023-06-05T12:11:46.592Z,14.15
2023-06-05T12:14:29.211Z,14.11
2023-06-05T12:16:59.837Z,14.09
2023-06-05T12:19:29.724Z,14.07
2023-06-05T12:22:06.297Z,14.04
2023-06-05T12:24:35.793Z,14.04
2023-06-05T12:27:06.442Z,14.05
2023-06-05T12:29:42.336Z,14.06
2023-06-05T12:32:27.686Z,14.12
2023-06-05T12:35:01.520Z,14.12
2023-06-05T12:37:39.291Z,14.11
2023-06-05T12:40:11.330Z,14.08
2023-06-05T12:42:41.811Z,14.08
2023-06-05T12:45:11.341Z,14.10
2023-06-05T12:47:40.763Z,14.14
2023-06-05T12:50:14.074Z,14.19
2023-06-05T12:52:43.241Z,14.23
2023-06-05T12:55:12.286Z,14.25
2023-06-05T12:57:41.071Z,14.23
2023-06-05T13:00:14.423Z,14.26
2023-06-05T13:02:47.373Z,14.30
2023-06-05T13:05:17.358Z,14.32
2023-06-05T13:07:46.784Z,14.32
2023-06-05T13:10:15.416Z,14.31
2023-06-05T13:12:44.481Z,14.32
2023-06-05T13:15:13.100Z,14.38
2023-06-05T13:17:41.591Z,14.37
2023-06-05T13:20:13.296Z,14.40
2023-06-05T13:22:42.881Z,14.45
2023-06-05T13:25:11.855Z,14.46
2023-06-05T13:27:40.194Z,14.46
2023-06-05T13:30:10.374Z,14.46
2023-06-05T13:32:40.668Z,14.49
2023-06-05T13:35:09.939Z,14.51
2023-06-05T13:37:39.771Z,14.54
2023-06-05T13:40:09.402Z,14.57
2023-06-05T13:42:37.701Z,14.63
2023-06-05T13:45:06.498Z,14.66
2023-06-05T13:47:34.778Z,14.70
2023-06-05T13:50:02.998Z,14.72
2023-06-05T13:52:31.266Z,14.80
2023-06-05T13:55:00.200Z,14.82
2023-06-05T13:57:29.469Z,14.84
2023-06-05T14:00:00.656Z,14.84
2023-06-05T14:02:29.317Z,14.83
2023-06-05T14:04:57.597Z,14.82
2023-06-05T14:07:31.343Z,14.84
2023-06-05T14:10:09.739Z,14.85
2023-06-05T14:12:38.064Z,14.89
2023-06-05T14:15:06.793Z,14.92
2023-06-05T14:17:35.232Z,15.00
2023-06-05T14:20:03.579Z,15.08
2023-06-05T14:22:31.842Z,15.15
2023-06-05T14:25:00.192Z,15.20
2023-06-05T14:27:29.210Z,15.22
2023-06-05T14:29:57.766Z,15.27
2023-06-05T14:32:26.036Z,15.34
2023-06-05T14:34:54.430Z,15.40
2023-06-05T14:37:22.654Z,15.48
2023-06-05T14:39:52.882Z,15.51
2023-06-05T14:42:21.179Z,15.54
2023-06-05T14:44:49.401Z,15.59
2023-06-05T14:47:17.664Z,15.69
2023-06-05T14:49:45.868Z,15.75
2023-06-05T14:52:14.248Z,15.83
2023-06-05T14:54:49.823Z,15.88
2023-06-05T14:57:25.174Z,15.96
2023-06-05T14:59:53.458Z,16.04
2023-06-05T15:02:24.178Z,16.07
2023-06-05T15:04:53.786Z,16.10
2023-06-05T15:07:22.669Z,16.18
2023-06-05T15:09:52.224Z,16.23
2023-06-05T15:12:20.503Z,16.31
2023-06-05T15:14:48.758Z,16.41
2023-06-05T15:17:17.116Z,16.43
2023-06-05T15:19:47.046Z,16.44
2023-06-05T15:22:15.380Z,16.42
2023-06-05T15:24:43.737Z,16.42
2023-06-05T15:27:12.921Z,16.48
2023-06-05T15:29:41.302Z,16.53
2023-06-05T15:32:20.036Z,16.55
2023-06-05T15:34:49.403Z,16.57
2023-06-05T15:37:17.684Z,16.59
2023-06-05T15:39:45.955Z,16.62
2023-06-05T15:42:14.859Z,16.70
2023-06-05T15:44:43.176Z,16.72
2023-06-05T15:47:11.411Z,16.71
2023-06-05T15:49:39.627Z,16.75
2023-06-05T15:52:09.317Z,16.79
2023-06-05T15:54:53.955Z,16.85
2023-06-05T15:57:23.001Z,16.93
2023-06-05T15:59:51.318Z,16.98
2023-06-05T16:02:21.005Z,17.05
2023-06-05T16:04:52.230Z,17.16
2023-06-05T16:07:20.498Z,17.29
2023-06-05T16:09:48.733Z,17.42
2023-06-05T16:12:17.041Z,17.57
2023-06-05T16:14:45.473Z,17.82
2023-06-05T16:17:13.806Z,18.08
2023-06-05T16:19:42.185Z,18.24
2023-06-05T16:22:10.420Z,18.28
2023-06-05T16:24:38.833Z,18.33
2023-06-05T16:27:07.773Z,18.41
2023-06-05T16:29:36.076Z,18.54
2023-06-05T16:32:04.332Z,18.70
2023-06-05T16:34:34.158Z,18.80
2023-06-05T16:37:04.295Z,18.78
2023-06-05T16:39:32.621Z,18.86
2023-06-05T16:42:03.820Z,18.91
2023-06-05T16:44:32.205Z,18.98
2023-06-05T16:47:03.599Z,19.09
2023-06-05T16:49:31.916Z,19.11
2023-06-05T16:52:00.284Z,19.12
2023-06-05T16:54:29.173Z,19.23
2023-06-05T16:56:58.044Z,19.34
2023-06-05T16:59:26.397Z,19.46
2023-06-05T17:01:55.030Z,19.57
2023-06-05T17:04:23.595Z,19.70
2023-06-05T17:06:52.398Z,19.78
2023-06-05T17:09:20.914Z,19.77
2023-06-05T17:11:49.228Z,19.75
2023-06-05T17:14:17.628Z,19.80
2023-06-05T17:16:45.963Z,19.87
2023-06-05T17:19:15.200Z,19.99
2023-06-05T17:21:43.736Z,20.11
2023-06-05T17:24:12.113Z,20.20
2023-06-05T17:26:40.587Z,20.37
2023-06-05T17:29:08.908Z,20.55
2023-06-05T17:31:37.233Z,20.75
2023-06-05T17:34:05.522Z,20.91
2023-06-05T17:36:33.822Z,21.04
2023-06-05T17:39:02.181Z,21.10
2023-06-05T17:41:30.677Z,21.16
2023-06-05T17:43:58.879Z,21.19
2023-06-05T17:46:27.333Z,21.18
2023-06-05T17:48:55.879Z,21.30
2023-06-05T17:51:24.546Z,21.36
2023-06-05T17:53:52.959Z,21.36
2023-06-05T17:56:21.476Z,21.42
2023-06-05T17:58:49.781Z,21.41
2023-06-05T18:01:18.636Z,21.43
2023-06-05T18:03:47.633Z,21.51
2023-06-05T18:06:16.137Z,21.63
2023-06-05T18:08:44.419Z,21.69
2023-06-05T18:11:12.687Z,21.83
2023-06-05T18:13:43.184Z,21.98
2023-06-05T18:16:11.889Z,21.97
2023-06-05T18:18:40.196Z,21.98
2023-06-05T18:21:13.522Z,22.09
2023-06-05T18:23:42.785Z,22.15
2023-06-05T18:26:12.291Z,22.23
2023-06-05T18:28:41.283Z,22.24
2023-06-05T18:31:10.181Z,22.35
2023-06-05T18:33:38.795Z,22.36
2023-06-05T18:36:07.223Z,22.45
2023-06-05T18:38:35.631Z,22.47
2023-06-05T18:41:04.074Z,22.41
2023-06-05T18:43:32.529Z,22.20
2023-06-05T18:46:00.832Z,22.09
2023-06-05T18:48:29.774Z,22.09
2023-06-05T18:51:04.990Z,22.21
2023-06-05T18:53:34.233Z,22.36
2023-06-05T18:56:02.508Z,22.45
2023-06-05T18:58:30.833Z,22.64
2023-06-05T19:00:59.162Z,22.56
2023-06-05T19:03:27.496Z,22.44
2023-06-05T19:05:55.790Z,22.34
2023-06-05T19:08:24.122Z,22.19
2023-06-05T19:10:52.412Z,22.22
2023-06-05T19:13:20.690Z,22.38
2023-06-05T19:15:51.236Z,22.52
2023-06-05T19:18:20.513Z,22.50
2023-06-05T19:20:48.998Z,22.60
2023-06-05T19:23:17.494Z,22.69
2023-06-05T19:25:45.810Z,22.83
2023-06-05T19:28:14.066Z,22.88
2023-06-05T19:30:42.325Z,22.85
2023-06-05T19:33:10.862Z,22.82
2023-06-05T19:35:39.321Z,22.83
2023-06-05T19:38:07.910Z,22.82
2023-06-05T19:40:36.253Z,22.71
2023-06-05T19:43:04.522Z,22.69
2023-06-05T19:45:32.757Z,22.79
2023-06-05T19:48:01.069Z,22.87
2023-06-05T19:50:29.602Z,22.94
2023-06-05T19:53:00.047Z,23.09
2023-06-05T19:55:28.986Z,23.15
2023-06-05T19:57:57.356Z,23.20
2023-06-05T20:00:27.211Z,23.09
2023-06-05T20:02:55.709Z,23.01
2023-06-05T20:05:24.219Z,22.98
2023-06-05T20:07:52.438Z,22.87
2023-06-05T20:10:21.458Z,22.81
2023-06-05T20:12:49.731Z,22.77
2023-06-05T20:15:18.225Z,22.67
2023-06-05T20:17:46.658Z,22.54
2023-06-05T20:20:15.037Z,22.48
2023-06-05T20:22:43.280Z,22.53
2023-06-05T20:25:11.799Z,22.53
2023-06-05T20:27:40.121Z,22.49
2023-06-05T20:30:09.114Z,22.45
2023-06-05T20:32:37.421Z,22.39
2023-06-05T20:35:06.043Z,22.34
2023-06-05T20:37:34.284Z,22.41
2023-06-05T20:40:10.335Z,22.52
2023-06-05T20:42:39.592Z,22.68
2023-06-05T20:45:09.432Z,22.79
2023-06-05T20:47:40.794Z,23.00
2023-06-05T20:50:10.923Z,23.31
2023-06-05T20:52:39.191Z,23.57
2023-06-05T20:55:09.741Z,23.93
2023-06-05T20:57:38.074Z,24.21
2023-06-05T21:00:10.964Z,24.67
2023-06-05T21:02:39.311Z,25.21
2023-06-05T21:05:08.832Z,25.61
2023-06-05T21:07:37.085Z,25.91
2023-06-05T21:10:08.418Z,26.24
2023-06-05T21:12:36.704Z,26.56
2023-06-05T21:15:05.791Z,26.86
2023-06-05T21:17:35.670Z,27.13
2023-06-05T21:20:06.240Z,27.30
2023-06-05T21:22:35.461Z,27.52
2023-06-05T21:25:04.254Z,27.76
2023-06-05T21:27:32.751Z,27.79
2023-06-05T21:30:00.980Z,27.54
2023-06-05T21:32:29.622Z,27.25
2023-06-05T21:34:59.624Z,27.03
2023-06-05T21:37:28.561Z,26.73
2023-06-05T21:39:56.802Z,26.52
2023-06-05T21:42:25.084Z,26.48
2023-06-05T21:44:53.647Z,26.30
2023-06-05T21:47:21.984Z,25.97
2023-06-05T21:49:50.440Z,25.68
2023-06-05T21:52:18.919Z,25.44
2023-06-05T21:54:47.221Z,25.33
2023-06-05T21:57:15.463Z,25.27
2023-06-05T21:59:43.921Z,25.18
2023-06-05T22:02:12.154Z,25.00
2023-06-05T22:04:41.271Z,24.82
2023-06-05T22:07:09.555Z,24.69
2023-06-05T22:09:38.990Z,24.56
2023-06-05T22:12:08.451Z,24.40
2023-06-05T22:14:42.141Z,24.27
2023-06-05T22:17:10.784Z,24.22
2023-06-05T22:19:39.851Z,24.27
2023-06-05T22:22:08.923Z,24.72
2023-06-05T22:24:39.168Z,25.38
2023-06-05T22:27:07.892Z,26.00
2023-06-05T22:29:36.218Z,26.42
2023-06-05T22:32:04.638Z,26.69
2023-06-05T22:34:34.436Z,26.88
2023-06-05T22:37:04.302Z,27.04
2023-06-05T22:39:34.040Z,27.13
2023-06-05T22:42:02.586Z,27.15
2023-06-05T22:44:32.197Z,27.12
2023-06-05T22:47:00.715Z,27.09
2023-06-05T22:49:29.423Z,27.07
2023-06-05T22:51:57.910Z,27.05
2023-06-05T22:54:26.267Z,27.09
2023-06-05T22:56:54.879Z,27.12
2023-06-05T22:59:23.247Z,27.08
2023-06-05T23:01:51.649Z,26.88
2023-06-05T23:04:22.845Z,26.55
2023-06-05T23:06:52.123Z,26.12
2023-06-05T23:09:21.182Z,25.73
2023-06-05T23:11:49.443Z,25.22
2023-06-05T23:14:18.949Z,24.92
2023-06-05T23:16:47.338Z,24.80
2023-06-05T23:19:16.825Z,24.73
2023-06-05T23:21:45.096Z,24.62
2023-06-05T23:24:14.504Z,24.32
2023-06-05T23:26:42.857Z,23.86
2023-06-05T23:29:11.177Z,23.50
2023-06-05T23:31:40.930Z,23.29
2023-06-05T23:34:09.229Z,23.24
2023-06-05T23:36:50.124Z,23.30
2023-06-05T23:39:20.175Z,23.31
2023-06-05T23:41:51.375Z,23.14
2023-06-05T23:44:19.836Z,22.87
2023-06-05T23:46:48.168Z,22.66
2023-06-05T23:49:16.655Z,22.49
2023-06-05T23:51:45.243Z,22.34
2023-06-05T23:54:13.662Z,22.19
2023-06-05T23:56:43.119Z,22.11
2023-06-05T23:59:11.381Z,22.07
